<?xml version="1.0" encoding="UTF-8"?>
<gpx version="1.1" creator="Endomondo.com" xsi:schemaLocation="http://www.topografix.com/GPX/1/1 http://www.topografix.com/GPX/1/1/gpx.xsd http://www.garmin.com/xmlschemas/GpxExtensions/v3 http://www.garmin.com/xmlschemas/GpxExtensionsv3.xsd http://www.garmin.com/xmlschemas/TrackPointExtension/v1 http://www.garmin.com/xmlschemas/TrackPointExtensionv1.xsd" xmlns="http://www.topografix.com/GPX/1/1" xmlns:gpxtpx="http://www.garmin.com/xmlschemas/TrackPointExtension/v1" xmlns:gpxx="http://www.garmin.com/xmlschemas/GpxExtensions/v3" xmlns:xsi="http://www.w3.org/2001/XMLSchema-instance">
 <metadata>
 <author>
 <name>Jan-Philippe Schilt</name>
 <email id="jp.schilt" domain="gmail.com"/>
 </author>
 <link href="http://www.endomondo.com">
 <text>Endomondo</text>
 </link>
 <time>2014-08-14T21:33:27Z</time>
 </metadata>
 <trk>
 <name>Wildpark usw</name>
 <src>http://www.endomondo.com/</src>
 <link href="https://www.endomondo.com/workouts/371770679/1055794">
 <text>Wildpark usw</text>
 </link>
 <type>CYCLING_SPORT</type>
 <trkseg>
 <trkpt lat="51.229834" lon="6.79837">
 <time>2014-07-12T14:29:39Z</time>
 </trkpt>
 <trkpt lat="51.229834" lon="6.79837">
 <ele>99.0</ele>
 <time>2014-07-12T14:29:41Z</time>
 </trkpt>
 <trkpt lat="51.229961" lon="6.798766">
 <ele>105.0</ele>
 <time>2014-07-12T14:29:47Z</time>
 </trkpt>
 <trkpt lat="51.230065" lon="6.799221">
 <ele>113.0</ele>
 <time>2014-07-12T14:29:52Z</time>
 </trkpt>
 <trkpt lat="51.230252" lon="6.799958">
 <ele>113.0</ele>
 <time>2014-07-12T14:29:58Z</time>
 </trkpt>
 <trkpt lat="51.230442" lon="6.800853">
 <ele>119.0</ele>
 <time>2014-07-12T14:30:04Z</time>
 </trkpt>
 <trkpt lat="51.23053" lon="6.80163">
 <ele>120.0</ele>
 <time>2014-07-12T14:30:09Z</time>
 </trkpt>
 <trkpt lat="51.23068" lon="6.80249">
 <ele>123.0</ele>
 <time>2014-07-12T14:30:15Z</time>
 </trkpt>
 <trkpt lat="51.230767" lon="6.802895">
 <ele>123.0</ele>
 <time>2014-07-12T14:30:18Z</time>
 </trkpt>
 <trkpt lat="51.23096" lon="6.803814">
 <ele>131.0</ele>
 <time>2014-07-12T14:30:25Z</time>
 </trkpt>
 <trkpt lat="51.231067" lon="6.804647">
 <ele>130.0</ele>
 <time>2014-07-12T14:30:31Z</time>
 </trkpt>
 <trkpt lat="51.231196" lon="6.805311">
 <ele>132.0</ele>
 <time>2014-07-12T14:30:36Z</time>
 </trkpt>
 <trkpt lat="51.231281" lon="6.806073">
 <ele>129.0</ele>
 <time>2014-07-12T14:30:42Z</time>
 </trkpt>
 <trkpt lat="51.231348" lon="6.80652">
 <ele>134.0</ele>
 <time>2014-07-12T14:30:46Z</time>
 </trkpt>
 <trkpt lat="51.231406" lon="6.806856">
 <ele>133.0</ele>
 <time>2014-07-12T14:30:49Z</time>
 </trkpt>
 <trkpt lat="51.231517" lon="6.807261">
 <ele>130.0</ele>
 <time>2014-07-12T14:30:54Z</time>
 </trkpt>
 <trkpt lat="51.23154" lon="6.807524">
 <ele>124.0</ele>
 <time>2014-07-12T14:30:59Z</time>
 </trkpt>
 <trkpt lat="51.231563" lon="6.807777">
 <ele>125.0</ele>
 <time>2014-07-12T14:31:04Z</time>
 </trkpt>
 <trkpt lat="51.231706" lon="6.808191">
 <ele>127.0</ele>
 <time>2014-07-12T14:31:10Z</time>
 </trkpt>
 <trkpt lat="51.231782" lon="6.808453">
 <ele>131.0</ele>
 <time>2014-07-12T14:31:16Z</time>
 </trkpt>
 <trkpt lat="51.231767" lon="6.808662">
 <ele>131.0</ele>
 <time>2014-07-12T14:31:28Z</time>
 </trkpt>
 <trkpt lat="51.232128" lon="6.81008">
 <ele>136.0</ele>
 <time>2014-07-12T14:31:42Z</time>
 </trkpt>
 <trkpt lat="51.232263" lon="6.810675">
 <ele>135.0</ele>
 <time>2014-07-12T14:31:48Z</time>
 </trkpt>
 <trkpt lat="51.232362" lon="6.810987">
 <ele>136.0</ele>
 <time>2014-07-12T14:31:51Z</time>
 </trkpt>
 <trkpt lat="51.232499" lon="6.811573">
 <ele>136.0</ele>
 <time>2014-07-12T14:31:58Z</time>
 </trkpt>
 <trkpt lat="51.232417" lon="6.811825">
 <ele>126.0</ele>
 <time>2014-07-12T14:32:07Z</time>
 </trkpt>
 <trkpt lat="51.232228" lon="6.812385">
 <ele>134.0</ele>
 <time>2014-07-12T14:32:14Z</time>
 </trkpt>
 <trkpt lat="51.232155" lon="6.812823">
 <ele>129.0</ele>
 <time>2014-07-12T14:32:19Z</time>
 </trkpt>
 <trkpt lat="51.232059" lon="6.813307">
 <ele>126.0</ele>
 <time>2014-07-12T14:32:24Z</time>
 </trkpt>
 <trkpt lat="51.23196" lon="6.813814">
 <ele>131.0</ele>
 <time>2014-07-12T14:32:31Z</time>
 </trkpt>
 <trkpt lat="51.231818" lon="6.813912">
 <ele>129.0</ele>
 <time>2014-07-12T14:32:35Z</time>
 </trkpt>
 <trkpt lat="51.231818" lon="6.813912">
 <time>2014-07-12T14:32:40Z</time>
 </trkpt>
 </trkseg>
 <trkseg>
 <trkpt lat="51.231729" lon="6.814357">
 <ele>133.0</ele>
 <time>2014-07-12T14:32:58Z</time>
 </trkpt>
 <trkpt lat="51.231729" lon="6.814357">
 <time>2014-07-12T14:32:58Z</time>
 </trkpt>
 <trkpt lat="51.231605" lon="6.81488">
 <ele>140.0</ele>
 <time>2014-07-12T14:33:04Z</time>
 </trkpt>
 <trkpt lat="51.231477" lon="6.815368">
 <ele>142.0</ele>
 <time>2014-07-12T14:33:10Z</time>
 </trkpt>
 <trkpt lat="51.231482" lon="6.815877">
 <ele>134.0</ele>
 <time>2014-07-12T14:33:15Z</time>
 </trkpt>
 <trkpt lat="51.231421" lon="6.816022">
 <ele>130.0</ele>
 <time>2014-07-12T14:33:20Z</time>
 </trkpt>
 <trkpt lat="51.231421" lon="6.816022">
 <time>2014-07-12T14:33:25Z</time>
 </trkpt>
 </trkseg>
 <trkseg>
 <trkpt lat="51.231513" lon="6.816141">
 <ele>132.0</ele>
 <time>2014-07-12T14:33:29Z</time>
 </trkpt>
 <trkpt lat="51.231513" lon="6.816141">
 <time>2014-07-12T14:33:29Z</time>
 </trkpt>
 <trkpt lat="51.231166" lon="6.816605">
 <ele>121.0</ele>
 <time>2014-07-12T14:33:36Z</time>
 </trkpt>
 <trkpt lat="51.231139" lon="6.817122">
 <ele>125.0</ele>
 <time>2014-07-12T14:33:42Z</time>
 </trkpt>
 <trkpt lat="51.231055" lon="6.817484">
 <ele>128.0</ele>
 <time>2014-07-12T14:33:47Z</time>
 </trkpt>
 <trkpt lat="51.230951" lon="6.818063">
 <ele>121.0</ele>
 <time>2014-07-12T14:33:53Z</time>
 </trkpt>
 <trkpt lat="51.230905" lon="6.818472">
 <ele>122.0</ele>
 <time>2014-07-12T14:33:59Z</time>
 </trkpt>
 <trkpt lat="51.230858" lon="6.818907">
 <ele>123.0</ele>
 <time>2014-07-12T14:34:05Z</time>
 </trkpt>
 <trkpt lat="51.230794" lon="6.819265">
 <ele>122.0</ele>
 <time>2014-07-12T14:34:10Z</time>
 </trkpt>
 <trkpt lat="51.230741" lon="6.819681">
 <ele>123.0</ele>
 <time>2014-07-12T14:34:15Z</time>
 </trkpt>
 <trkpt lat="51.230718" lon="6.820069">
 <ele>124.0</ele>
 <time>2014-07-12T14:34:19Z</time>
 </trkpt>
 <trkpt lat="51.230649" lon="6.820549">
 <ele>127.0</ele>
 <time>2014-07-12T14:34:25Z</time>
 </trkpt>
 <trkpt lat="51.230591" lon="6.821012">
 <ele>128.0</ele>
 <time>2014-07-12T14:34:30Z</time>
 </trkpt>
 <trkpt lat="51.230532" lon="6.821391">
 <ele>125.0</ele>
 <time>2014-07-12T14:34:37Z</time>
 </trkpt>
 <trkpt lat="51.230401" lon="6.82213">
 <ele>102.0</ele>
 <time>2014-07-12T14:34:48Z</time>
 </trkpt>
 <trkpt lat="51.230241" lon="6.82256">
 <ele>101.0</ele>
 <time>2014-07-12T14:34:54Z</time>
 </trkpt>
 <trkpt lat="51.23013" lon="6.822863">
 <ele>97.0</ele>
 <time>2014-07-12T14:35:02Z</time>
 </trkpt>
 <trkpt lat="51.230031" lon="6.823074">
 <ele>95.0</ele>
 <time>2014-07-12T14:35:09Z</time>
 </trkpt>
 <trkpt lat="51.230018" lon="6.823098">
 <ele>96.0</ele>
 <time>2014-07-12T14:35:11Z</time>
 </trkpt>
 <trkpt lat="51.230018" lon="6.823098">
 <time>2014-07-12T14:35:16Z</time>
 </trkpt>
 </trkseg>
 <trkseg>
 <trkpt lat="51.229805" lon="6.823506">
 <ele>106.0</ele>
 <time>2014-07-12T14:35:46Z</time>
 </trkpt>
 <trkpt lat="51.229805" lon="6.823506">
 <time>2014-07-12T14:35:46Z</time>
 </trkpt>
 <trkpt lat="51.229589" lon="6.824037">
 <ele>109.0</ele>
 <time>2014-07-12T14:35:52Z</time>
 </trkpt>
 <trkpt lat="51.229434" lon="6.824636">
 <ele>113.0</ele>
 <time>2014-07-12T14:35:59Z</time>
 </trkpt>
 <trkpt lat="51.229184" lon="6.825103">
 <ele>116.0</ele>
 <time>2014-07-12T14:36:05Z</time>
 </trkpt>
 <trkpt lat="51.228979" lon="6.825673">
 <ele>120.0</ele>
 <time>2014-07-12T14:36:11Z</time>
 </trkpt>
 <trkpt lat="51.22871" lon="6.826187">
 <ele>121.0</ele>
 <time>2014-07-12T14:36:16Z</time>
 </trkpt>
 <trkpt lat="51.228461" lon="6.827003">
 <ele>115.0</ele>
 <time>2014-07-12T14:36:22Z</time>
 </trkpt>
 <trkpt lat="51.228187" lon="6.827577">
 <ele>113.0</ele>
 <time>2014-07-12T14:36:28Z</time>
 </trkpt>
 <trkpt lat="51.227957" lon="6.828044">
 <ele>108.0</ele>
 <time>2014-07-12T14:36:33Z</time>
 </trkpt>
 <trkpt lat="51.227766" lon="6.828691">
 <ele>102.0</ele>
 <time>2014-07-12T14:36:39Z</time>
 </trkpt>
 <trkpt lat="51.227579" lon="6.829312">
 <ele>100.0</ele>
 <time>2014-07-12T14:36:45Z</time>
 </trkpt>
 <trkpt lat="51.227431" lon="6.829722">
 <ele>104.0</ele>
 <time>2014-07-12T14:36:50Z</time>
 </trkpt>
 <trkpt lat="51.227287" lon="6.830196">
 <ele>103.0</ele>
 <time>2014-07-12T14:36:55Z</time>
 </trkpt>
 <trkpt lat="51.227127" lon="6.830957">
 <ele>104.0</ele>
 <time>2014-07-12T14:37:02Z</time>
 </trkpt>
 <trkpt lat="51.227097" lon="6.831542">
 <ele>105.0</ele>
 <time>2014-07-12T14:37:07Z</time>
 </trkpt>
 <trkpt lat="51.226989" lon="6.832185">
 <ele>106.0</ele>
 <time>2014-07-12T14:37:13Z</time>
 </trkpt>
 <trkpt lat="51.226924" lon="6.832866">
 <ele>107.0</ele>
 <time>2014-07-12T14:37:19Z</time>
 </trkpt>
 <trkpt lat="51.226874" lon="6.833228">
 <ele>108.0</ele>
 <time>2014-07-12T14:37:22Z</time>
 </trkpt>
 <trkpt lat="51.226754" lon="6.833989">
 <ele>104.0</ele>
 <time>2014-07-12T14:37:28Z</time>
 </trkpt>
 <trkpt lat="51.226936" lon="6.834753">
 <ele>101.0</ele>
 <time>2014-07-12T14:37:34Z</time>
 </trkpt>
 <trkpt lat="51.227026" lon="6.835271">
 <ele>99.0</ele>
 <time>2014-07-12T14:37:39Z</time>
 </trkpt>
 <trkpt lat="51.227047" lon="6.835461">
 <ele>93.0</ele>
 <time>2014-07-12T14:37:44Z</time>
 </trkpt>
 <trkpt lat="51.227047" lon="6.835461">
 <time>2014-07-12T14:37:49Z</time>
 </trkpt>
 </trkseg>
 <trkseg>
 <trkpt lat="51.227014" lon="6.835494">
 <ele>90.0</ele>
 <time>2014-07-12T14:37:53Z</time>
 </trkpt>
 <trkpt lat="51.227014" lon="6.835494">
 <time>2014-07-12T14:37:53Z</time>
 </trkpt>
 <trkpt lat="51.227127" lon="6.836122">
 <ele>94.0</ele>
 <time>2014-07-12T14:38:02Z</time>
 </trkpt>
 <trkpt lat="51.227146" lon="6.836673">
 <ele>92.0</ele>
 <time>2014-07-12T14:38:07Z</time>
 </trkpt>
 <trkpt lat="51.227253" lon="6.83719">
 <ele>96.0</ele>
 <time>2014-07-12T14:38:12Z</time>
 </trkpt>
 <trkpt lat="51.227317" lon="6.837784">
 <ele>90.0</ele>
 <time>2014-07-12T14:38:18Z</time>
 </trkpt>
 <trkpt lat="51.22738" lon="6.838308">
 <ele>90.0</ele>
 <time>2014-07-12T14:38:23Z</time>
 </trkpt>
 <trkpt lat="51.227414" lon="6.838828">
 <ele>90.0</ele>
 <time>2014-07-12T14:38:28Z</time>
 </trkpt>
 <trkpt lat="51.227505" lon="6.839347">
 <ele>92.0</ele>
 <time>2014-07-12T14:38:33Z</time>
 </trkpt>
 <trkpt lat="51.22748" lon="6.839964">
 <ele>89.0</ele>
 <time>2014-07-12T14:38:39Z</time>
 </trkpt>
 <trkpt lat="51.227634" lon="6.840421">
 <ele>88.0</ele>
 <time>2014-07-12T14:38:43Z</time>
 </trkpt>
 <trkpt lat="51.227658" lon="6.841084">
 <ele>89.0</ele>
 <time>2014-07-12T14:38:49Z</time>
 </trkpt>
 <trkpt lat="51.227692" lon="6.841616">
 <ele>90.0</ele>
 <time>2014-07-12T14:38:54Z</time>
 </trkpt>
 <trkpt lat="51.22775" lon="6.841953">
 <ele>88.0</ele>
 <time>2014-07-12T14:38:57Z</time>
 </trkpt>
 <trkpt lat="51.22791" lon="6.842638">
 <ele>86.0</ele>
 <time>2014-07-12T14:39:03Z</time>
 </trkpt>
 <trkpt lat="51.227985" lon="6.843431">
 <ele>86.0</ele>
 <time>2014-07-12T14:39:10Z</time>
 </trkpt>
 <trkpt lat="51.228071" lon="6.844023">
 <ele>86.0</ele>
 <time>2014-07-12T14:39:15Z</time>
 </trkpt>
 <trkpt lat="51.228184" lon="6.844699">
 <ele>83.0</ele>
 <time>2014-07-12T14:39:21Z</time>
 </trkpt>
 <trkpt lat="51.228377" lon="6.84526">
 <ele>87.0</ele>
 <time>2014-07-12T14:39:26Z</time>
 </trkpt>
 <trkpt lat="51.228634" lon="6.845761">
 <ele>86.0</ele>
 <time>2014-07-12T14:39:32Z</time>
 </trkpt>
 <trkpt lat="51.228832" lon="6.845964">
 <ele>88.0</ele>
 <time>2014-07-12T14:39:37Z</time>
 </trkpt>
 <trkpt lat="51.228983" lon="6.8463">
 <ele>93.0</ele>
 <time>2014-07-12T14:39:48Z</time>
 </trkpt>
 <trkpt lat="51.229263" lon="6.846746">
 <ele>95.0</ele>
 <time>2014-07-12T14:39:54Z</time>
 </trkpt>
 <trkpt lat="51.229497" lon="6.847147">
 <ele>94.0</ele>
 <time>2014-07-12T14:40:00Z</time>
 </trkpt>
 <trkpt lat="51.229869" lon="6.847579">
 <ele>95.0</ele>
 <time>2014-07-12T14:40:06Z</time>
 </trkpt>
 <trkpt lat="51.230057" lon="6.847942">
 <ele>96.0</ele>
 <time>2014-07-12T14:40:11Z</time>
 </trkpt>
 <trkpt lat="51.230384" lon="6.848465">
 <ele>96.0</ele>
 <time>2014-07-12T14:40:18Z</time>
 </trkpt>
 <trkpt lat="51.230763" lon="6.848997">
 <ele>100.0</ele>
 <time>2014-07-12T14:40:25Z</time>
 </trkpt>
 <trkpt lat="51.230901" lon="6.849387">
 <ele>100.0</ele>
 <time>2014-07-12T14:40:30Z</time>
 </trkpt>
 <trkpt lat="51.231274" lon="6.850249">
 <ele>106.0</ele>
 <time>2014-07-12T14:40:38Z</time>
 </trkpt>
 <trkpt lat="51.231551" lon="6.850488">
 <ele>108.0</ele>
 <time>2014-07-12T14:40:44Z</time>
 </trkpt>
 <trkpt lat="51.231752" lon="6.850664">
 <ele>110.0</ele>
 <time>2014-07-12T14:40:49Z</time>
 </trkpt>
 <trkpt lat="51.231851" lon="6.850637">
 <ele>111.0</ele>
 <time>2014-07-12T14:40:55Z</time>
 </trkpt>
 <trkpt lat="51.231851" lon="6.850637">
 <ele>111.0</ele>
 <time>2014-07-12T14:41:00Z</time>
 </trkpt>
 <trkpt lat="51.231851" lon="6.850637">
 <time>2014-07-12T14:41:00Z</time>
 </trkpt>
 </trkseg>
 <trkseg>
 <trkpt lat="51.231851" lon="6.850637">
 <time>2014-07-12T14:41:24Z</time>
 </trkpt>
 <trkpt lat="51.231879" lon="6.850923">
 <ele>108.0</ele>
 <time>2014-07-12T14:41:24Z</time>
 </trkpt>
 <trkpt lat="51.232076" lon="6.851357">
 <ele>106.0</ele>
 <time>2014-07-12T14:41:33Z</time>
 </trkpt>
 <trkpt lat="51.232288" lon="6.8518">
 <ele>113.0</ele>
 <time>2014-07-12T14:41:40Z</time>
 </trkpt>
 <trkpt lat="51.23248" lon="6.852153">
 <ele>115.0</ele>
 <time>2014-07-12T14:41:46Z</time>
 </trkpt>
 <trkpt lat="51.23266" lon="6.85248">
 <ele>117.0</ele>
 <time>2014-07-12T14:41:52Z</time>
 </trkpt>
 <trkpt lat="51.232821" lon="6.852735">
 <ele>119.0</ele>
 <time>2014-07-12T14:41:57Z</time>
 </trkpt>
 <trkpt lat="51.233079" lon="6.853067">
 <ele>121.0</ele>
 <time>2014-07-12T14:42:04Z</time>
 </trkpt>
 <trkpt lat="51.233262" lon="6.853267">
 <ele>120.0</ele>
 <time>2014-07-12T14:42:09Z</time>
 </trkpt>
 <trkpt lat="51.233474" lon="6.853606">
 <ele>119.0</ele>
 <time>2014-07-12T14:42:15Z</time>
 </trkpt>
 <trkpt lat="51.233653" lon="6.853994">
 <ele>119.0</ele>
 <time>2014-07-12T14:42:22Z</time>
 </trkpt>
 <trkpt lat="51.233841" lon="6.854274">
 <ele>123.0</ele>
 <time>2014-07-12T14:42:27Z</time>
 </trkpt>
 <trkpt lat="51.233981" lon="6.854547">
 <ele>118.0</ele>
 <time>2014-07-12T14:42:32Z</time>
 </trkpt>
 <trkpt lat="51.234181" lon="6.854894">
 <ele>121.0</ele>
 <time>2014-07-12T14:42:38Z</time>
 </trkpt>
 <trkpt lat="51.234283" lon="6.855159">
 <ele>121.0</ele>
 <time>2014-07-12T14:42:43Z</time>
 </trkpt>
 <trkpt lat="51.234496" lon="6.855538">
 <ele>119.0</ele>
 <time>2014-07-12T14:42:49Z</time>
 </trkpt>
 <trkpt lat="51.234675" lon="6.855861">
 <ele>118.0</ele>
 <time>2014-07-12T14:42:54Z</time>
 </trkpt>
 <trkpt lat="51.234848" lon="6.856309">
 <ele>120.0</ele>
 <time>2014-07-12T14:43:01Z</time>
 </trkpt>
 <trkpt lat="51.234838" lon="6.85648">
 <ele>128.0</ele>
 <time>2014-07-12T14:43:09Z</time>
 </trkpt>
 <trkpt lat="51.235" lon="6.85671">
 <ele>123.0</ele>
 <time>2014-07-12T14:43:21Z</time>
 </trkpt>
 <trkpt lat="51.23524" lon="6.857026">
 <ele>116.0</ele>
 <time>2014-07-12T14:43:30Z</time>
 </trkpt>
 <trkpt lat="51.235387" lon="6.857348">
 <ele>116.0</ele>
 <time>2014-07-12T14:43:35Z</time>
 </trkpt>
 <trkpt lat="51.235603" lon="6.857854">
 <ele>116.0</ele>
 <time>2014-07-12T14:43:41Z</time>
 </trkpt>
 <trkpt lat="51.235747" lon="6.858053">
 <ele>116.0</ele>
 <time>2014-07-12T14:43:44Z</time>
 </trkpt>
 <trkpt lat="51.235941" lon="6.858246">
 <ele>122.0</ele>
 <time>2014-07-12T14:43:51Z</time>
 </trkpt>
 <trkpt lat="51.236038" lon="6.858656">
 <ele>124.0</ele>
 <time>2014-07-12T14:44:00Z</time>
 </trkpt>
 <trkpt lat="51.236286" lon="6.858912">
 <ele>126.0</ele>
 <time>2014-07-12T14:44:06Z</time>
 </trkpt>
 <trkpt lat="51.236496" lon="6.859112">
 <ele>131.0</ele>
 <time>2014-07-12T14:44:12Z</time>
 </trkpt>
 <trkpt lat="51.236826" lon="6.859587">
 <ele>114.0</ele>
 <time>2014-07-12T14:44:18Z</time>
 </trkpt>
 <trkpt lat="51.236955" lon="6.859868">
 <ele>112.0</ele>
 <time>2014-07-12T14:44:23Z</time>
 </trkpt>
 <trkpt lat="51.23721" lon="6.859951">
 <ele>117.0</ele>
 <time>2014-07-12T14:44:29Z</time>
 </trkpt>
 <trkpt lat="51.237498" lon="6.860052">
 <ele>114.0</ele>
 <time>2014-07-12T14:44:35Z</time>
 </trkpt>
 <trkpt lat="51.237871" lon="6.860143">
 <ele>112.0</ele>
 <time>2014-07-12T14:44:42Z</time>
 </trkpt>
 <trkpt lat="51.238167" lon="6.860153">
 <ele>114.0</ele>
 <time>2014-07-12T14:44:47Z</time>
 </trkpt>
 <trkpt lat="51.2384" lon="6.860267">
 <ele>117.0</ele>
 <time>2014-07-12T14:44:52Z</time>
 </trkpt>
 <trkpt lat="51.238724" lon="6.860444">
 <ele>119.0</ele>
 <time>2014-07-12T14:44:58Z</time>
 </trkpt>
 <trkpt lat="51.239025" lon="6.860617">
 <ele>116.0</ele>
 <time>2014-07-12T14:45:04Z</time>
 </trkpt>
 <trkpt lat="51.239369" lon="6.860853">
 <ele>116.0</ele>
 <time>2014-07-12T14:45:11Z</time>
 </trkpt>
 <trkpt lat="51.239582" lon="6.861033">
 <ele>115.0</ele>
 <time>2014-07-12T14:45:16Z</time>
 </trkpt>
 <trkpt lat="51.239957" lon="6.861043">
 <ele>114.0</ele>
 <time>2014-07-12T14:45:24Z</time>
 </trkpt>
 <trkpt lat="51.240226" lon="6.860815">
 <ele>111.0</ele>
 <time>2014-07-12T14:45:32Z</time>
 </trkpt>
 <trkpt lat="51.240413" lon="6.86066">
 <ele>112.0</ele>
 <time>2014-07-12T14:45:38Z</time>
 </trkpt>
 <trkpt lat="51.24066" lon="6.860466">
 <ele>114.0</ele>
 <time>2014-07-12T14:45:44Z</time>
 </trkpt>
 <trkpt lat="51.24091" lon="6.860271">
 <ele>114.0</ele>
 <time>2014-07-12T14:45:50Z</time>
 </trkpt>
 <trkpt lat="51.241225" lon="6.860047">
 <ele>115.0</ele>
 <time>2014-07-12T14:45:57Z</time>
 </trkpt>
 <trkpt lat="51.241461" lon="6.859847">
 <ele>113.0</ele>
 <time>2014-07-12T14:46:03Z</time>
 </trkpt>
 <trkpt lat="51.241716" lon="6.859644">
 <ele>114.0</ele>
 <time>2014-07-12T14:46:09Z</time>
 </trkpt>
 <trkpt lat="51.242008" lon="6.859306">
 <ele>113.0</ele>
 <time>2014-07-12T14:46:14Z</time>
 </trkpt>
 <trkpt lat="51.242338" lon="6.859113">
 <ele>111.0</ele>
 <time>2014-07-12T14:46:20Z</time>
 </trkpt>
 <trkpt lat="51.242643" lon="6.858923">
 <ele>112.0</ele>
 <time>2014-07-12T14:46:26Z</time>
 </trkpt>
 <trkpt lat="51.242979" lon="6.858596">
 <ele>105.0</ele>
 <time>2014-07-12T14:46:32Z</time>
 </trkpt>
 <trkpt lat="51.243339" lon="6.858264">
 <ele>105.0</ele>
 <time>2014-07-12T14:46:38Z</time>
 </trkpt>
 <trkpt lat="51.243729" lon="6.858071">
 <ele>108.0</ele>
 <time>2014-07-12T14:46:45Z</time>
 </trkpt>
 <trkpt lat="51.24403" lon="6.857855">
 <ele>108.0</ele>
 <time>2014-07-12T14:46:51Z</time>
 </trkpt>
 <trkpt lat="51.244335" lon="6.857551">
 <ele>111.0</ele>
 <time>2014-07-12T14:46:57Z</time>
 </trkpt>
 <trkpt lat="51.244547" lon="6.857368">
 <ele>114.0</ele>
 <time>2014-07-12T14:47:03Z</time>
 </trkpt>
 <trkpt lat="51.244815" lon="6.857006">
 <ele>113.0</ele>
 <time>2014-07-12T14:47:09Z</time>
 </trkpt>
 <trkpt lat="51.245132" lon="6.856726">
 <ele>115.0</ele>
 <time>2014-07-12T14:47:15Z</time>
 </trkpt>
 <trkpt lat="51.245401" lon="6.856336">
 <ele>116.0</ele>
 <time>2014-07-12T14:47:20Z</time>
 </trkpt>
 <trkpt lat="51.245548" lon="6.856392">
 <ele>110.0</ele>
 <time>2014-07-12T14:47:29Z</time>
 </trkpt>
 <trkpt lat="51.245635" lon="6.85612">
 <ele>110.0</ele>
 <time>2014-07-12T14:47:48Z</time>
 </trkpt>
 <trkpt lat="51.245912" lon="6.855549">
 <ele>112.0</ele>
 <time>2014-07-12T14:47:56Z</time>
 </trkpt>
 <trkpt lat="51.246067" lon="6.855072">
 <ele>114.0</ele>
 <time>2014-07-12T14:48:02Z</time>
 </trkpt>
 <trkpt lat="51.246349" lon="6.854569">
 <ele>108.0</ele>
 <time>2014-07-12T14:48:09Z</time>
 </trkpt>
 <trkpt lat="51.24657" lon="6.854151">
 <ele>111.0</ele>
 <time>2014-07-12T14:48:15Z</time>
 </trkpt>
 <trkpt lat="51.246843" lon="6.853781">
 <ele>111.0</ele>
 <time>2014-07-12T14:48:20Z</time>
 </trkpt>
 <trkpt lat="51.247007" lon="6.853663">
 <ele>110.0</ele>
 <time>2014-07-12T14:48:23Z</time>
 </trkpt>
 <trkpt lat="51.247323" lon="6.853506">
 <ele>108.0</ele>
 <time>2014-07-12T14:48:29Z</time>
 </trkpt>
 <trkpt lat="51.247566" lon="6.853433">
 <ele>107.0</ele>
 <time>2014-07-12T14:48:35Z</time>
 </trkpt>
 <trkpt lat="51.247921" lon="6.852897">
 <ele>111.0</ele>
 <time>2014-07-12T14:48:41Z</time>
 </trkpt>
 <trkpt lat="51.248216" lon="6.852407">
 <ele>112.0</ele>
 <time>2014-07-12T14:48:47Z</time>
 </trkpt>
 <trkpt lat="51.248417" lon="6.85214">
 <ele>116.0</ele>
 <time>2014-07-12T14:48:52Z</time>
 </trkpt>
 <trkpt lat="51.248594" lon="6.851589">
 <ele>109.0</ele>
 <time>2014-07-12T14:48:59Z</time>
 </trkpt>
 <trkpt lat="51.248592" lon="6.851246">
 <ele>113.0</ele>
 <time>2014-07-12T14:49:05Z</time>
 </trkpt>
 <trkpt lat="51.248647" lon="6.85089">
 <ele>113.0</ele>
 <time>2014-07-12T14:49:10Z</time>
 </trkpt>
 <trkpt lat="51.248722" lon="6.85042">
 <ele>117.0</ele>
 <time>2014-07-12T14:49:17Z</time>
 </trkpt>
 <trkpt lat="51.248946" lon="6.849868">
 <ele>111.0</ele>
 <time>2014-07-12T14:49:26Z</time>
 </trkpt>
 <trkpt lat="51.249105" lon="6.849528">
 <ele>109.0</ele>
 <time>2014-07-12T14:49:32Z</time>
 </trkpt>
 <trkpt lat="51.249228" lon="6.849295">
 <ele>109.0</ele>
 <time>2014-07-12T14:49:37Z</time>
 </trkpt>
 <trkpt lat="51.249423" lon="6.848842">
 <ele>110.0</ele>
 <time>2014-07-12T14:49:44Z</time>
 </trkpt>
 <trkpt lat="51.249699" lon="6.84835">
 <ele>112.0</ele>
 <time>2014-07-12T14:49:51Z</time>
 </trkpt>
 <trkpt lat="51.249885" lon="6.848039">
 <ele>118.0</ele>
 <time>2014-07-12T14:49:56Z</time>
 </trkpt>
 <trkpt lat="51.249879" lon="6.847732">
 <ele>120.0</ele>
 <time>2014-07-12T14:50:01Z</time>
 </trkpt>
 <trkpt lat="51.249767" lon="6.84749">
 <ele>123.0</ele>
 <time>2014-07-12T14:50:09Z</time>
 </trkpt>
 <trkpt lat="51.249685" lon="6.847421">
 <ele>129.0</ele>
 <time>2014-07-12T14:50:15Z</time>
 </trkpt>
 <trkpt lat="51.249685" lon="6.847421">
 <time>2014-07-12T14:50:22Z</time>
 </trkpt>
 </trkseg>
 <trkseg>
 <trkpt lat="51.249685" lon="6.847421">
 <time>2014-07-12T14:50:30Z</time>
 </trkpt>
 <trkpt lat="51.249666" lon="6.847455">
 <ele>130.0</ele>
 <time>2014-07-12T14:50:30Z</time>
 </trkpt>
 <trkpt lat="51.249666" lon="6.847455">
 <time>2014-07-12T14:52:00Z</time>
 </trkpt>
 </trkseg>
 <trkseg>
 <trkpt lat="51.249666" lon="6.847455">
 <time>2014-07-12T15:38:29Z</time>
 </trkpt>
 <trkpt lat="51.249714" lon="6.847328">
 <ele>108.0</ele>
 <time>2014-07-12T15:38:30Z</time>
 </trkpt>
 <trkpt lat="51.249785" lon="6.847778">
 <ele>99.0</ele>
 <time>2014-07-12T15:39:56Z</time>
 </trkpt>
 <trkpt lat="51.249964" lon="6.847884">
 <ele>102.0</ele>
 <time>2014-07-12T15:40:02Z</time>
 </trkpt>
 <trkpt lat="51.250139" lon="6.847696">
 <ele>104.0</ele>
 <time>2014-07-12T15:40:07Z</time>
 </trkpt>
 <trkpt lat="51.250403" lon="6.847514">
 <ele>109.0</ele>
 <time>2014-07-12T15:40:12Z</time>
 </trkpt>
 <trkpt lat="51.250652" lon="6.847169">
 <ele>114.0</ele>
 <time>2014-07-12T15:40:18Z</time>
 </trkpt>
 <trkpt lat="51.250884" lon="6.847102">
 <ele>115.0</ele>
 <time>2014-07-12T15:40:23Z</time>
 </trkpt>
 <trkpt lat="51.251071" lon="6.846902">
 <ele>124.0</ele>
 <time>2014-07-12T15:40:30Z</time>
 </trkpt>
 <trkpt lat="51.251203" lon="6.846827">
 <ele>132.0</ele>
 <time>2014-07-12T15:40:38Z</time>
 </trkpt>
 <trkpt lat="51.251349" lon="6.846625">
 <ele>134.0</ele>
 <time>2014-07-12T15:40:47Z</time>
 </trkpt>
 <trkpt lat="51.251485" lon="6.846477">
 <ele>131.0</ele>
 <time>2014-07-12T15:40:55Z</time>
 </trkpt>
 <trkpt lat="51.251529" lon="6.846316">
 <ele>131.0</ele>
 <time>2014-07-12T15:41:00Z</time>
 </trkpt>
 <trkpt lat="51.251534" lon="6.846152">
 <ele>132.0</ele>
 <time>2014-07-12T15:41:05Z</time>
 </trkpt>
 <trkpt lat="51.251631" lon="6.845972">
 <ele>129.0</ele>
 <time>2014-07-12T15:41:11Z</time>
 </trkpt>
 <trkpt lat="51.25174" lon="6.845552">
 <ele>134.0</ele>
 <time>2014-07-12T15:41:22Z</time>
 </trkpt>
 <trkpt lat="51.251791" lon="6.845308">
 <ele>138.0</ele>
 <time>2014-07-12T15:41:28Z</time>
 </trkpt>
 <trkpt lat="51.251867" lon="6.844937">
 <ele>142.0</ele>
 <time>2014-07-12T15:41:36Z</time>
 </trkpt>
 <trkpt lat="51.251906" lon="6.84464">
 <ele>143.0</ele>
 <time>2014-07-12T15:41:41Z</time>
 </trkpt>
 <trkpt lat="51.25198" lon="6.844288">
 <ele>144.0</ele>
 <time>2014-07-12T15:41:47Z</time>
 </trkpt>
 <trkpt lat="51.252062" lon="6.843862">
 <ele>145.0</ele>
 <time>2014-07-12T15:41:54Z</time>
 </trkpt>
 <trkpt lat="51.252129" lon="6.843479">
 <ele>147.0</ele>
 <time>2014-07-12T15:42:00Z</time>
 </trkpt>
 <trkpt lat="51.252202" lon="6.843048">
 <ele>149.0</ele>
 <time>2014-07-12T15:42:07Z</time>
 </trkpt>
 <trkpt lat="51.252088" lon="6.842676">
 <ele>137.0</ele>
 <time>2014-07-12T15:42:12Z</time>
 </trkpt>
 <trkpt lat="51.252071" lon="6.842475">
 <ele>139.0</ele>
 <time>2014-07-12T15:42:19Z</time>
 </trkpt>
 <trkpt lat="51.251935" lon="6.842317">
 <ele>140.0</ele>
 <time>2014-07-12T15:42:27Z</time>
 </trkpt>
 <trkpt lat="51.251855" lon="6.842237">
 <ele>142.0</ele>
 <time>2014-07-12T15:42:36Z</time>
 </trkpt>
 <trkpt lat="51.251493" lon="6.842181">
 <ele>144.0</ele>
 <time>2014-07-12T15:43:26Z</time>
 </trkpt>
 <trkpt lat="51.251286" lon="6.841946">
 <ele>146.0</ele>
 <time>2014-07-12T15:43:34Z</time>
 </trkpt>
 <trkpt lat="51.251178" lon="6.841651">
 <ele>150.0</ele>
 <time>2014-07-12T15:43:40Z</time>
 </trkpt>
 <trkpt lat="51.251033" lon="6.84123">
 <ele>151.0</ele>
 <time>2014-07-12T15:43:48Z</time>
 </trkpt>
 <trkpt lat="51.251039" lon="6.840837">
 <ele>163.0</ele>
 <time>2014-07-12T15:43:57Z</time>
 </trkpt>
 <trkpt lat="51.250992" lon="6.84048">
 <ele>158.0</ele>
 <time>2014-07-12T15:44:05Z</time>
 </trkpt>
 <trkpt lat="51.251161" lon="6.840238">
 <ele>151.0</ele>
 <time>2014-07-12T15:44:11Z</time>
 </trkpt>
 <trkpt lat="51.251341" lon="6.840071">
 <ele>150.0</ele>
 <time>2014-07-12T15:44:16Z</time>
 </trkpt>
 <trkpt lat="51.251527" lon="6.839766">
 <ele>147.0</ele>
 <time>2014-07-12T15:44:22Z</time>
 </trkpt>
 <trkpt lat="51.251644" lon="6.839506">
 <ele>148.0</ele>
 <time>2014-07-12T15:44:28Z</time>
 </trkpt>
 <trkpt lat="51.251766" lon="6.839162">
 <ele>155.0</ele>
 <time>2014-07-12T15:44:35Z</time>
 </trkpt>
 <trkpt lat="51.251801" lon="6.8389">
 <ele>154.0</ele>
 <time>2014-07-12T15:44:40Z</time>
 </trkpt>
 <trkpt lat="51.251844" lon="6.838298">
 <ele>144.0</ele>
 <time>2014-07-12T15:44:46Z</time>
 </trkpt>
 <trkpt lat="51.25192" lon="6.837803">
 <ele>148.0</ele>
 <time>2014-07-12T15:44:52Z</time>
 </trkpt>
 <trkpt lat="51.252006" lon="6.837269">
 <ele>146.0</ele>
 <time>2014-07-12T15:44:58Z</time>
 </trkpt>
 <trkpt lat="51.252104" lon="6.836901">
 <ele>144.0</ele>
 <time>2014-07-12T15:45:04Z</time>
 </trkpt>
 <trkpt lat="51.252118" lon="6.8368">
 <ele>144.0</ele>
 <time>2014-07-12T15:45:11Z</time>
 </trkpt>
 <trkpt lat="51.252118" lon="6.8368">
 <time>2014-07-12T15:45:16Z</time>
 </trkpt>
 </trkseg>
 <trkseg>
 <trkpt lat="51.252118" lon="6.8368">
 <time>2014-07-12T15:46:33Z</time>
 </trkpt>
 <trkpt lat="51.252358" lon="6.836536">
 <ele>149.0</ele>
 <time>2014-07-12T15:46:33Z</time>
 </trkpt>
 <trkpt lat="51.252709" lon="6.836314">
 <ele>152.0</ele>
 <time>2014-07-12T15:46:38Z</time>
 </trkpt>
 <trkpt lat="51.253095" lon="6.836328">
 <ele>147.0</ele>
 <time>2014-07-12T15:46:43Z</time>
 </trkpt>
 <trkpt lat="51.253713" lon="6.83641">
 <ele>141.0</ele>
 <time>2014-07-12T15:46:50Z</time>
 </trkpt>
 <trkpt lat="51.254139" lon="6.836557">
 <ele>143.0</ele>
 <time>2014-07-12T15:46:55Z</time>
 </trkpt>
 <trkpt lat="51.254526" lon="6.836656">
 <ele>139.0</ele>
 <time>2014-07-12T15:46:59Z</time>
 </trkpt>
 <trkpt lat="51.254805" lon="6.83656">
 <ele>136.0</ele>
 <time>2014-07-12T15:47:02Z</time>
 </trkpt>
 <trkpt lat="51.254932" lon="6.835791">
 <ele>139.0</ele>
 <time>2014-07-12T15:47:08Z</time>
 </trkpt>
 <trkpt lat="51.254775" lon="6.835148">
 <ele>136.0</ele>
 <time>2014-07-12T15:47:12Z</time>
 </trkpt>
 <trkpt lat="51.254451" lon="6.834174">
 <ele>132.0</ele>
 <time>2014-07-12T15:47:17Z</time>
 </trkpt>
 <trkpt lat="51.253789" lon="6.833225">
 <ele>122.0</ele>
 <time>2014-07-12T15:47:23Z</time>
 </trkpt>
 <trkpt lat="51.253483" lon="6.832595">
 <ele>118.0</ele>
 <time>2014-07-12T15:47:29Z</time>
 </trkpt>
 <trkpt lat="51.253103" lon="6.831827">
 <ele>113.0</ele>
 <time>2014-07-12T15:47:35Z</time>
 </trkpt>
 <trkpt lat="51.252871" lon="6.830881">
 <ele>107.0</ele>
 <time>2014-07-12T15:47:41Z</time>
 </trkpt>
 <trkpt lat="51.252743" lon="6.829939">
 <ele>102.0</ele>
 <time>2014-07-12T15:47:47Z</time>
 </trkpt>
 <trkpt lat="51.252578" lon="6.82912">
 <ele>98.0</ele>
 <time>2014-07-12T15:47:52Z</time>
 </trkpt>
 <trkpt lat="51.252498" lon="6.828588">
 <ele>99.0</ele>
 <time>2014-07-12T15:47:55Z</time>
 </trkpt>
 <trkpt lat="51.252343" lon="6.827725">
 <ele>97.0</ele>
 <time>2014-07-12T15:48:00Z</time>
 </trkpt>
 <trkpt lat="51.252165" lon="6.826874">
 <ele>96.0</ele>
 <time>2014-07-12T15:48:05Z</time>
 </trkpt>
 <trkpt lat="51.251905" lon="6.825627">
 <ele>90.0</ele>
 <time>2014-07-12T15:48:12Z</time>
 </trkpt>
 <trkpt lat="51.251682" lon="6.824599">
 <ele>92.0</ele>
 <time>2014-07-12T15:48:18Z</time>
 </trkpt>
 <trkpt lat="51.251402" lon="6.823597">
 <ele>86.0</ele>
 <time>2014-07-12T15:48:24Z</time>
 </trkpt>
 <trkpt lat="51.251215" lon="6.822754">
 <ele>88.0</ele>
 <time>2014-07-12T15:48:30Z</time>
 </trkpt>
 <trkpt lat="51.251111" lon="6.822527">
 <ele>89.0</ele>
 <time>2014-07-12T15:48:37Z</time>
 </trkpt>
 <trkpt lat="51.251097" lon="6.822493">
 <ele>91.0</ele>
 <time>2014-07-12T15:48:43Z</time>
 </trkpt>
 <trkpt lat="51.251097" lon="6.822493">
 <time>2014-07-12T15:48:52Z</time>
 </trkpt>
 </trkseg>
 <trkseg>
 <trkpt lat="51.251097" lon="6.822493">
 <time>2014-07-12T15:49:00Z</time>
 </trkpt>
 <trkpt lat="51.25125" lon="6.822279">
 <ele>115.0</ele>
 <time>2014-07-12T15:49:00Z</time>
 </trkpt>
 <trkpt lat="51.251075" lon="6.821454">
 <ele>112.0</ele>
 <time>2014-07-12T15:49:09Z</time>
 </trkpt>
 <trkpt lat="51.250963" lon="6.820782">
 <ele>105.0</ele>
 <time>2014-07-12T15:49:15Z</time>
 </trkpt>
 <trkpt lat="51.250897" lon="6.820168">
 <ele>99.0</ele>
 <time>2014-07-12T15:49:21Z</time>
 </trkpt>
 <trkpt lat="51.250762" lon="6.819414">
 <ele>93.0</ele>
 <time>2014-07-12T15:49:28Z</time>
 </trkpt>
 <trkpt lat="51.250697" lon="6.818754">
 <ele>90.0</ele>
 <time>2014-07-12T15:49:34Z</time>
 </trkpt>
 <trkpt lat="51.250678" lon="6.818232">
 <ele>87.0</ele>
 <time>2014-07-12T15:49:39Z</time>
 </trkpt>
 <trkpt lat="51.250641" lon="6.817592">
 <ele>84.0</ele>
 <time>2014-07-12T15:49:45Z</time>
 </trkpt>
 <trkpt lat="51.250623" lon="6.816937">
 <ele>82.0</ele>
 <time>2014-07-12T15:49:51Z</time>
 </trkpt>
 <trkpt lat="51.250618" lon="6.816337">
 <ele>77.0</ele>
 <time>2014-07-12T15:49:56Z</time>
 </trkpt>
 <trkpt lat="51.250617" lon="6.815794">
 <ele>79.0</ele>
 <time>2014-07-12T15:50:01Z</time>
 </trkpt>
 <trkpt lat="51.250696" lon="6.814995">
 <ele>75.0</ele>
 <time>2014-07-12T15:50:08Z</time>
 </trkpt>
 <trkpt lat="51.25071" lon="6.814501">
 <ele>77.0</ele>
 <time>2014-07-12T15:50:13Z</time>
 </trkpt>
 <trkpt lat="51.250754" lon="6.814167">
 <ele>78.0</ele>
 <time>2014-07-12T15:50:16Z</time>
 </trkpt>
 <trkpt lat="51.25083" lon="6.813695">
 <ele>77.0</ele>
 <time>2014-07-12T15:50:20Z</time>
 </trkpt>
 <trkpt lat="51.250871" lon="6.81315">
 <ele>75.0</ele>
 <time>2014-07-12T15:50:25Z</time>
 </trkpt>
 <trkpt lat="51.250918" lon="6.812528">
 <ele>78.0</ele>
 <time>2014-07-12T15:50:31Z</time>
 </trkpt>
 <trkpt lat="51.250931" lon="6.81188">
 <ele>76.0</ele>
 <time>2014-07-12T15:50:37Z</time>
 </trkpt>
 <trkpt lat="51.250937" lon="6.811539">
 <ele>76.0</ele>
 <time>2014-07-12T15:50:40Z</time>
 </trkpt>
 <trkpt lat="51.250951" lon="6.811032">
 <ele>77.0</ele>
 <time>2014-07-12T15:50:45Z</time>
 </trkpt>
 <trkpt lat="51.250969" lon="6.81037">
 <ele>74.0</ele>
 <time>2014-07-12T15:50:51Z</time>
 </trkpt>
 <trkpt lat="51.250932" lon="6.809799">
 <ele>78.0</ele>
 <time>2014-07-12T15:50:57Z</time>
 </trkpt>
 <trkpt lat="51.250872" lon="6.809266">
 <ele>78.0</ele>
 <time>2014-07-12T15:51:02Z</time>
 </trkpt>
 <trkpt lat="51.250852" lon="6.808657">
 <ele>82.0</ele>
 <time>2014-07-12T15:51:08Z</time>
 </trkpt>
 <trkpt lat="51.250921" lon="6.808014">
 <ele>83.0</ele>
 <time>2014-07-12T15:51:14Z</time>
 </trkpt>
 <trkpt lat="51.250926" lon="6.807578">
 <ele>82.0</ele>
 <time>2014-07-12T15:51:18Z</time>
 </trkpt>
 <trkpt lat="51.250904" lon="6.807283">
 <ele>81.0</ele>
 <time>2014-07-12T15:51:21Z</time>
 </trkpt>
 <trkpt lat="51.250929" lon="6.806758">
 <ele>81.0</ele>
 <time>2014-07-12T15:51:26Z</time>
 </trkpt>
 <trkpt lat="51.250937" lon="6.806199">
 <ele>78.0</ele>
 <time>2014-07-12T15:51:31Z</time>
 </trkpt>
 <trkpt lat="51.250918" lon="6.805606">
 <ele>78.0</ele>
 <time>2014-07-12T15:51:36Z</time>
 </trkpt>
 <trkpt lat="51.250913" lon="6.804954">
 <ele>75.0</ele>
 <time>2014-07-12T15:51:42Z</time>
 </trkpt>
 <trkpt lat="51.250907" lon="6.804386">
 <ele>76.0</ele>
 <time>2014-07-12T15:51:47Z</time>
 </trkpt>
 <trkpt lat="51.250806" lon="6.803765">
 <ele>77.0</ele>
 <time>2014-07-12T15:51:53Z</time>
 </trkpt>
 <trkpt lat="51.250637" lon="6.803274">
 <ele>71.0</ele>
 <time>2014-07-12T15:51:58Z</time>
 </trkpt>
 <trkpt lat="51.250801" lon="6.802829">
 <ele>68.0</ele>
 <time>2014-07-12T15:52:03Z</time>
 </trkpt>
 <trkpt lat="51.250891" lon="6.802264">
 <ele>71.0</ele>
 <time>2014-07-12T15:52:09Z</time>
 </trkpt>
 <trkpt lat="51.250852" lon="6.802198">
 <ele>71.0</ele>
 <time>2014-07-12T15:52:11Z</time>
 </trkpt>
 <trkpt lat="51.250852" lon="6.802198">
 <time>2014-07-12T15:52:16Z</time>
 </trkpt>
 </trkseg>
 <trkseg>
 <trkpt lat="51.250852" lon="6.802198">
 <time>2014-07-12T15:52:23Z</time>
 </trkpt>
 <trkpt lat="51.250858" lon="6.80207">
 <ele>77.0</ele>
 <time>2014-07-12T15:52:23Z</time>
 </trkpt>
 <trkpt lat="51.250787" lon="6.801612">
 <ele>79.0</ele>
 <time>2014-07-12T15:52:33Z</time>
 </trkpt>
 <trkpt lat="51.250836" lon="6.801214">
 <ele>79.0</ele>
 <time>2014-07-12T15:52:41Z</time>
 </trkpt>
 <trkpt lat="51.250707" lon="6.801069">
 <ele>81.0</ele>
 <time>2014-07-12T15:52:46Z</time>
 </trkpt>
 <trkpt lat="51.250707" lon="6.801069">
 <time>2014-07-12T15:52:51Z</time>
 </trkpt>
 </trkseg>
 <trkseg>
 <trkpt lat="51.250707" lon="6.801069">
 <time>2014-07-12T15:53:30Z</time>
 </trkpt>
 <trkpt lat="51.250566" lon="6.80086">
 <ele>81.0</ele>
 <time>2014-07-12T15:53:30Z</time>
 </trkpt>
 <trkpt lat="51.250322" lon="6.800519">
 <ele>84.0</ele>
 <time>2014-07-12T15:53:36Z</time>
 </trkpt>
 <trkpt lat="51.250094" lon="6.800239">
 <ele>83.0</ele>
 <time>2014-07-12T15:53:41Z</time>
 </trkpt>
 <trkpt lat="51.249833" lon="6.799871">
 <ele>84.0</ele>
 <time>2014-07-12T15:53:47Z</time>
 </trkpt>
 <trkpt lat="51.249511" lon="6.799441">
 <ele>83.0</ele>
 <time>2014-07-12T15:53:53Z</time>
 </trkpt>
 <trkpt lat="51.249265" lon="6.799045">
 <ele>85.0</ele>
 <time>2014-07-12T15:53:58Z</time>
 </trkpt>
 <trkpt lat="51.249011" lon="6.798523">
 <ele>84.0</ele>
 <time>2014-07-12T15:54:04Z</time>
 </trkpt>
 <trkpt lat="51.248781" lon="6.79811">
 <ele>84.0</ele>
 <time>2014-07-12T15:54:09Z</time>
 </trkpt>
 <trkpt lat="51.248528" lon="6.797604">
 <ele>84.0</ele>
 <time>2014-07-12T15:54:15Z</time>
 </trkpt>
 <trkpt lat="51.248382" lon="6.797171">
 <ele>86.0</ele>
 <time>2014-07-12T15:54:20Z</time>
 </trkpt>
 <trkpt lat="51.248355" lon="6.796724">
 <ele>90.0</ele>
 <time>2014-07-12T15:54:26Z</time>
 </trkpt>
 <trkpt lat="51.248294" lon="6.796348">
 <ele>90.0</ele>
 <time>2014-07-12T15:54:32Z</time>
 </trkpt>
 <trkpt lat="51.248126" lon="6.79601">
 <ele>89.0</ele>
 <time>2014-07-12T15:54:37Z</time>
 </trkpt>
 <trkpt lat="51.247895" lon="6.795513">
 <ele>88.0</ele>
 <time>2014-07-12T15:54:43Z</time>
 </trkpt>
 <trkpt lat="51.247814" lon="6.795277">
 <ele>93.0</ele>
 <time>2014-07-12T15:54:48Z</time>
 </trkpt>
 <trkpt lat="51.24757" lon="6.794706">
 <ele>91.0</ele>
 <time>2014-07-12T15:54:57Z</time>
 </trkpt>
 <trkpt lat="51.247374" lon="6.794372">
 <ele>91.0</ele>
 <time>2014-07-12T15:55:02Z</time>
 </trkpt>
 <trkpt lat="51.247206" lon="6.793923">
 <ele>87.0</ele>
 <time>2014-07-12T15:55:07Z</time>
 </trkpt>
 <trkpt lat="51.246988" lon="6.793389">
 <ele>85.0</ele>
 <time>2014-07-12T15:55:13Z</time>
 </trkpt>
 <trkpt lat="51.246774" lon="6.79275">
 <ele>84.0</ele>
 <time>2014-07-12T15:55:19Z</time>
 </trkpt>
 <trkpt lat="51.246661" lon="6.792177">
 <ele>84.0</ele>
 <time>2014-07-12T15:55:24Z</time>
 </trkpt>
 <trkpt lat="51.246397" lon="6.791459">
 <ele>87.0</ele>
 <time>2014-07-12T15:55:30Z</time>
 </trkpt>
 <trkpt lat="51.246086" lon="6.790765">
 <ele>85.0</ele>
 <time>2014-07-12T15:55:36Z</time>
 </trkpt>
 <trkpt lat="51.246015" lon="6.790409">
 <ele>85.0</ele>
 <time>2014-07-12T15:55:39Z</time>
 </trkpt>
 <trkpt lat="51.245863" lon="6.78985">
 <ele>85.0</ele>
 <time>2014-07-12T15:55:44Z</time>
 </trkpt>
 <trkpt lat="51.245612" lon="6.78932">
 <ele>82.0</ele>
 <time>2014-07-12T15:55:49Z</time>
 </trkpt>
 <trkpt lat="51.245503" lon="6.78902">
 <ele>84.0</ele>
 <time>2014-07-12T15:55:52Z</time>
 </trkpt>
 <trkpt lat="51.245334" lon="6.788708">
 <ele>87.0</ele>
 <time>2014-07-12T15:55:56Z</time>
 </trkpt>
 <trkpt lat="51.245082" lon="6.78833">
 <ele>88.0</ele>
 <time>2014-07-12T15:56:01Z</time>
 </trkpt>
 <trkpt lat="51.244733" lon="6.787762">
 <ele>89.0</ele>
 <time>2014-07-12T15:56:07Z</time>
 </trkpt>
 <trkpt lat="51.244332" lon="6.787039">
 <ele>90.0</ele>
 <time>2014-07-12T15:56:14Z</time>
 </trkpt>
 <trkpt lat="51.244024" lon="6.786452">
 <ele>89.0</ele>
 <time>2014-07-12T15:56:20Z</time>
 </trkpt>
 <trkpt lat="51.243746" lon="6.786001">
 <ele>89.0</ele>
 <time>2014-07-12T15:56:25Z</time>
 </trkpt>
 <trkpt lat="51.243368" lon="6.78537">
 <ele>91.0</ele>
 <time>2014-07-12T15:56:32Z</time>
 </trkpt>
 <trkpt lat="51.243063" lon="6.784838">
 <ele>88.0</ele>
 <time>2014-07-12T15:56:38Z</time>
 </trkpt>
 <trkpt lat="51.242725" lon="6.784329">
 <ele>83.0</ele>
 <time>2014-07-12T15:56:44Z</time>
 </trkpt>
 <trkpt lat="51.242602" lon="6.783749">
 <ele>80.0</ele>
 <time>2014-07-12T15:56:50Z</time>
 </trkpt>
 <trkpt lat="51.2426" lon="6.783263">
 <ele>78.0</ele>
 <time>2014-07-12T15:56:56Z</time>
 </trkpt>
 <trkpt lat="51.242622" lon="6.78289">
 <ele>81.0</ele>
 <time>2014-07-12T15:57:02Z</time>
 </trkpt>
 <trkpt lat="51.242587" lon="6.782751">
 <ele>80.0</ele>
 <time>2014-07-12T15:57:08Z</time>
 </trkpt>
 <trkpt lat="51.242587" lon="6.782751">
 <time>2014-07-12T15:57:14Z</time>
 </trkpt>
 </trkseg>
 <trkseg>
 <trkpt lat="51.242587" lon="6.782751">
 <time>2014-07-12T15:57:17Z</time>
 </trkpt>
 <trkpt lat="51.242592" lon="6.782614">
 <ele>79.0</ele>
 <time>2014-07-12T15:57:17Z</time>
 </trkpt>
 <trkpt lat="51.242555" lon="6.782208">
 <ele>77.0</ele>
 <time>2014-07-12T15:57:22Z</time>
 </trkpt>
 <trkpt lat="51.242379" lon="6.781732">
 <ele>75.0</ele>
 <time>2014-07-12T15:57:27Z</time>
 </trkpt>
 <trkpt lat="51.242196" lon="6.781165">
 <ele>76.0</ele>
 <time>2014-07-12T15:57:33Z</time>
 </trkpt>
 <trkpt lat="51.241982" lon="6.78063">
 <ele>76.0</ele>
 <time>2014-07-12T15:57:39Z</time>
 </trkpt>
 <trkpt lat="51.241857" lon="6.780019">
 <ele>75.0</ele>
 <time>2014-07-12T15:57:45Z</time>
 </trkpt>
 <trkpt lat="51.24178" lon="6.779486">
 <ele>76.0</ele>
 <time>2014-07-12T15:57:50Z</time>
 </trkpt>
 <trkpt lat="51.241577" lon="6.778885">
 <ele>74.0</ele>
 <time>2014-07-12T15:57:56Z</time>
 </trkpt>
 <trkpt lat="51.241317" lon="6.778306">
 <ele>71.0</ele>
 <time>2014-07-12T15:58:02Z</time>
 </trkpt>
 <trkpt lat="51.241188" lon="6.777851">
 <ele>74.0</ele>
 <time>2014-07-12T15:58:07Z</time>
 </trkpt>
 <trkpt lat="51.241059" lon="6.777532">
 <ele>78.0</ele>
 <time>2014-07-12T15:58:11Z</time>
 </trkpt>
 <trkpt lat="51.24088" lon="6.776975">
 <ele>77.0</ele>
 <time>2014-07-12T15:58:17Z</time>
 </trkpt>
 <trkpt lat="51.240736" lon="6.776399">
 <ele>76.0</ele>
 <time>2014-07-12T15:58:23Z</time>
 </trkpt>
 <trkpt lat="51.240634" lon="6.775981">
 <ele>76.0</ele>
 <time>2014-07-12T15:58:28Z</time>
 </trkpt>
 <trkpt lat="51.240589" lon="6.775846">
 <ele>76.0</ele>
 <time>2014-07-12T15:58:30Z</time>
 </trkpt>
 <trkpt lat="51.240589" lon="6.775846">
 <time>2014-07-12T15:58:36Z</time>
 </trkpt>
 </trkseg>
 <trkseg>
 <trkpt lat="51.240589" lon="6.775846">
 <time>2014-07-12T15:59:02Z</time>
 </trkpt>
 <trkpt lat="51.24048" lon="6.77549">
 <ele>83.0</ele>
 <time>2014-07-12T15:59:02Z</time>
 </trkpt>
 <trkpt lat="51.240332" lon="6.774993">
 <ele>83.0</ele>
 <time>2014-07-12T15:59:08Z</time>
 </trkpt>
 <trkpt lat="51.240124" lon="6.774349">
 <ele>80.0</ele>
 <time>2014-07-12T15:59:14Z</time>
 </trkpt>
 <trkpt lat="51.239972" lon="6.773826">
 <ele>73.0</ele>
 <time>2014-07-12T15:59:19Z</time>
 </trkpt>
 <trkpt lat="51.239889" lon="6.773203">
 <ele>68.0</ele>
 <time>2014-07-12T15:59:25Z</time>
 </trkpt>
 <trkpt lat="51.239766" lon="6.772733">
 <ele>72.0</ele>
 <time>2014-07-12T15:59:30Z</time>
 </trkpt>
 <trkpt lat="51.239671" lon="6.772053">
 <ele>75.0</ele>
 <time>2014-07-12T15:59:36Z</time>
 </trkpt>
 <trkpt lat="51.239392" lon="6.771565">
 <ele>74.0</ele>
 <time>2014-07-12T15:59:41Z</time>
 </trkpt>
 <trkpt lat="51.238899" lon="6.771668">
 <ele>74.0</ele>
 <time>2014-07-12T15:59:47Z</time>
 </trkpt>
 <trkpt lat="51.238492" lon="6.771763">
 <ele>75.0</ele>
 <time>2014-07-12T15:59:53Z</time>
 </trkpt>
 <trkpt lat="51.238372" lon="6.771781">
 <ele>75.0</ele>
 <time>2014-07-12T16:00:00Z</time>
 </trkpt>
 <trkpt lat="51.237702" lon="6.771972">
 <ele>74.0</ele>
 <time>2014-07-12T16:00:13Z</time>
 </trkpt>
 <trkpt lat="51.23726" lon="6.771994">
 <ele>75.0</ele>
 <time>2014-07-12T16:00:19Z</time>
 </trkpt>
 <trkpt lat="51.23685" lon="6.771855">
 <ele>73.0</ele>
 <time>2014-07-12T16:00:26Z</time>
 </trkpt>
 <trkpt lat="51.236695" lon="6.771746">
 <ele>73.0</ele>
 <time>2014-07-12T16:00:31Z</time>
 </trkpt>
 <trkpt lat="51.236406" lon="6.771608">
 <ele>72.0</ele>
 <time>2014-07-12T16:00:37Z</time>
 </trkpt>
 <trkpt lat="51.235888" lon="6.771547">
 <ele>76.0</ele>
 <time>2014-07-12T16:00:44Z</time>
 </trkpt>
 <trkpt lat="51.235463" lon="6.771567">
 <ele>76.0</ele>
 <time>2014-07-12T16:00:50Z</time>
 </trkpt>
 <trkpt lat="51.234925" lon="6.771579">
 <ele>75.0</ele>
 <time>2014-07-12T16:00:57Z</time>
 </trkpt>
 <trkpt lat="51.234482" lon="6.771573">
 <ele>74.0</ele>
 <time>2014-07-12T16:01:03Z</time>
 </trkpt>
 <trkpt lat="51.234128" lon="6.771593">
 <ele>71.0</ele>
 <time>2014-07-12T16:01:08Z</time>
 </trkpt>
 <trkpt lat="51.23367" lon="6.771599">
 <ele>72.0</ele>
 <time>2014-07-12T16:01:14Z</time>
 </trkpt>
 <trkpt lat="51.233285" lon="6.771619">
 <ele>72.0</ele>
 <time>2014-07-12T16:01:20Z</time>
 </trkpt>
 <trkpt lat="51.232936" lon="6.771588">
 <ele>73.0</ele>
 <time>2014-07-12T16:01:25Z</time>
 </trkpt>
 <trkpt lat="51.232609" lon="6.771585">
 <ele>73.0</ele>
 <time>2014-07-12T16:01:30Z</time>
 </trkpt>
 <trkpt lat="51.23241" lon="6.771593">
 <ele>73.0</ele>
 <time>2014-07-12T16:01:33Z</time>
 </trkpt>
 <trkpt lat="51.23208" lon="6.771556">
 <ele>72.0</ele>
 <time>2014-07-12T16:01:38Z</time>
 </trkpt>
 <trkpt lat="51.231735" lon="6.771474">
 <ele>74.0</ele>
 <time>2014-07-12T16:01:45Z</time>
 </trkpt>
 <trkpt lat="51.231404" lon="6.771292">
 <ele>78.0</ele>
 <time>2014-07-12T16:01:52Z</time>
 </trkpt>
 <trkpt lat="51.231066" lon="6.771269">
 <ele>76.0</ele>
 <time>2014-07-12T16:01:57Z</time>
 </trkpt>
 <trkpt lat="51.230725" lon="6.771246">
 <ele>74.0</ele>
 <time>2014-07-12T16:02:03Z</time>
 </trkpt>
 <trkpt lat="51.2304" lon="6.771187">
 <ele>73.0</ele>
 <time>2014-07-12T16:02:09Z</time>
 </trkpt>
 <trkpt lat="51.23008" lon="6.771116">
 <ele>73.0</ele>
 <time>2014-07-12T16:02:15Z</time>
 </trkpt>
 <trkpt lat="51.229794" lon="6.771076">
 <ele>73.0</ele>
 <time>2014-07-12T16:02:20Z</time>
 </trkpt>
 <trkpt lat="51.229495" lon="6.771057">
 <ele>73.0</ele>
 <time>2014-07-12T16:02:25Z</time>
 </trkpt>
 <trkpt lat="51.229222" lon="6.771015">
 <ele>72.0</ele>
 <time>2014-07-12T16:02:30Z</time>
 </trkpt>
 <trkpt lat="51.228898" lon="6.770992">
 <ele>73.0</ele>
 <time>2014-07-12T16:02:35Z</time>
 </trkpt>
 <trkpt lat="51.228663" lon="6.770951">
 <ele>76.0</ele>
 <time>2014-07-12T16:02:44Z</time>
 </trkpt>
 <trkpt lat="51.228029" lon="6.770824">
 <ele>73.0</ele>
 <time>2014-07-12T16:03:00Z</time>
 </trkpt>
 <trkpt lat="51.227799" lon="6.770832">
 <ele>73.0</ele>
 <time>2014-07-12T16:03:06Z</time>
 </trkpt>
 <trkpt lat="51.227771" lon="6.770813">
 <ele>77.0</ele>
 <time>2014-07-12T16:03:12Z</time>
 </trkpt>
 <trkpt lat="51.227771" lon="6.770813">
 <time>2014-07-12T16:03:17Z</time>
 </trkpt>
 </trkseg>
 <trkseg>
 <trkpt lat="51.227771" lon="6.770813">
 <time>2014-07-12T16:04:51Z</time>
 </trkpt>
 <trkpt lat="51.227518" lon="6.770882">
 <ele>80.0</ele>
 <time>2014-07-12T16:04:51Z</time>
 </trkpt>
 <trkpt lat="51.227518" lon="6.770882">
 <time>2014-07-12T16:05:01Z</time>
 </trkpt>
 </trkseg>
 <trkseg>
 <trkpt lat="51.227518" lon="6.770882">
 <time>2014-07-12T16:05:02Z</time>
 </trkpt>
 </trkseg>
 </trk>
</gpx>